Amsterdam, Missouri
Current Conditions -  °F | °C
As of 6:46 AM on Sunday 21 Dec 2014 (Local Time) from KOJC Reporting Station
Haze Haze  
Wind Chill:   Ceiling: 300
Heat Index:   Visibility: 4mi
Dew Point:   Wind: 7mph
Humidity: 100%   Direction: 180°S
Pressure: 30.05"   Gusts: NA
Location:  38.35°N, 94.59°W
Report Text: KOJC 211246Z 18006KT 4SM BR BKN003 OVC017 03/03 A3005 RMK AO2 T00280028
Loading
Personal Weather Stations






























Interactive Weather Map New forecast layout! Learn more

10-Day Weather Forecast

Advertisements
Track Severe Weather on mobile